»·PEaware :: N629MS KOGA-KDEN

N629MS :: KOGA-KDEN

FLIGHT INFORMATION

Flight Status: Arrived
Operator: Privately registered:
United States
More flights under this callsign
Pilot: Mike T. (22542)
Aircraft: BEECH AIRCRAFT BARON
(BE58)
More flights by this aircraft type
Origin: KOGA Searle
United States
Destination: KDEN Denver Intl
United States
More flights between these airports :: More routes between these airports
Route: +FFW
File this flight plan on PilotEdge
Remarks:
Altitude:
(Current/Filed)
8,500ft
Speed:
(Current/Filed)
180kts
Departed: 07-Jan-19 07:40 PM
Arrived: 07-Jan-19 08:36 PM
Distance/Time
Traveled:
152nm/0:55
Distance/Time
To Go:
Arrived

Flight Plot

Page will automatically refresh every two minutes.


Map Options




Map Legend


Flown Route
Filed Route
Departure Airport
Arrival Airport
Navaid (VOR, NDB)
Fix

Horizontal Profiles

Position Reports

Time Latitude Longitude Heading Altitude Ground
Speed
07-Jan-19 19:36 41.119296 -101.762289 0 3280ft 0kts
07-Jan-19 19:36 41.119297 -101.762289 0 3280ft 0kts
07-Jan-19 19:37 41.118402 -101.762719 181 3280ft 7kts
07-Jan-19 19:38 41.118129 -101.762727 180 3280ft 6kts
07-Jan-19 19:39 41.117846 -101.784610 270 3490ft 137kts
07-Jan-19 19:40 41.096255 -101.834762 228 4221ft 175kts
07-Jan-19 19:41 41.063387 -101.883963 228 4925ft 179kts
07-Jan-19 19:42 41.029721 -101.932761 225 5625ft 178kts
07-Jan-19 19:43 40.995212 -101.979659 226 6321ft 177kts
07-Jan-19 19:44 40.959926 -102.024706 221 7019ft 175kts
07-Jan-19 19:45 40.923188 -102.067077 219 7716ft 172kts
07-Jan-19 19:46 40.886465 -102.105845 218 8387ft 167kts
07-Jan-19 19:47 40.844831 -102.139700 209 8502ft 184kts
07-Jan-19 19:48 40.800611 -102.175905 212 8500ft 188kts
07-Jan-19 19:49 40.756228 -102.213161 212 8500ft 189kts
07-Jan-19 19:50 40.711758 -102.250466 212 8499ft 189kts
07-Jan-19 19:51 40.667962 -102.288823 217 8500ft 189kts
07-Jan-19 19:52 40.628044 -102.333702 227 8500ft 189kts
07-Jan-19 19:53 40.591894 -102.383932 226 8499ft 189kts
07-Jan-19 19:54 40.555799 -102.434553 228 8500ft 189kts
07-Jan-19 19:55 40.521174 -102.486512 229 8500ft 189kts
07-Jan-19 19:56 40.487023 -102.538956 228 8499ft 187kts
07-Jan-19 19:57 40.453821 -102.591163 230 8499ft 185kts
07-Jan-19 19:58 40.420990 -102.643373 230 8499ft 185kts
07-Jan-19 19:59 40.389646 -102.696949 235 8500ft 185kts
07-Jan-19 20:00 40.361211 -102.753171 238 8499ft 185kts
07-Jan-19 20:01 40.335754 -102.811904 240 8499ft 185kts
07-Jan-19 20:02 40.310776 -102.870864 240 8499ft 185kts
07-Jan-19 20:03 40.282286 -102.926914 233 8500ft 185kts
07-Jan-19 20:04 40.251621 -102.981159 234 8500ft 185kts
07-Jan-19 20:05 40.222060 -103.036290 234 8499ft 185kts
07-Jan-19 20:06 40.194955 -103.093507 241 8500ft 185kts
07-Jan-19 20:07 40.171447 -103.153582 239 8500ft 185kts
07-Jan-19 20:08 40.149685 -103.214255 252 8500ft 185kts
07-Jan-19 20:09 40.134561 -103.278543 252 8499ft 185kts
07-Jan-19 20:10 40.108631 -103.336354 237 8500ft 185kts
07-Jan-19 20:11 40.080524 -103.392806 236 8499ft 185kts
07-Jan-19 20:12 40.052374 -103.449313 236 8500ft 185kts
07-Jan-19 20:13 40.024275 -103.505693 236 8500ft 185kts
07-Jan-19 20:14 39.996255 -103.561893 236 8500ft 185kts
07-Jan-19 20:15 39.968185 -103.618169 236 8500ft 185kts
07-Jan-19 20:16 39.940074 -103.674505 236 8500ft 185kts
07-Jan-19 20:17 39.911979 -103.730786 236 8500ft 185kts
07-Jan-19 20:18 39.883810 -103.787192 236 8500ft 185kts
07-Jan-19 20:19 39.855815 -103.843226 236 8108ft 183kts
07-Jan-19 20:20 39.829257 -103.896362 236 7998ft 168kts
07-Jan-19 20:21 39.803434 -103.948838 244 7969ft 173kts
07-Jan-19 20:22 39.791077 -104.010441 256 7278ft 177kts
07-Jan-19 20:23 39.779796 -104.073819 256 7000ft 181kts
07-Jan-19 20:24 39.768514 -104.137203 256 6999ft 179kts
07-Jan-19 20:25 39.764211 -104.201798 266 7000ft 179kts
07-Jan-19 20:26 39.761576 -104.266651 266 7000ft 179kts
07-Jan-19 20:27 39.758942 -104.331541 266 7000ft 179kts
07-Jan-19 20:28 39.756312 -104.396316 266 7000ft 179kts
07-Jan-19 20:29 39.753679 -104.461175 266 7000ft 179kts
07-Jan-19 20:30 39.751052 -104.525866 266 7000ft 179kts
07-Jan-19 20:31 39.748437 -104.590281 266 6999ft 176kts
07-Jan-19 20:32 39.771485 -104.631623 322 7024ft 146kts
07-Jan-19 20:33 39.808207 -104.642102 359 5965ft 138kts
07-Jan-19 20:34 39.841191 -104.641668 0 5433ft 76kts
07-Jan-19 20:35 39.850815 -104.641571 356 5433ft 11kts

Navigation Log

Ident Type
Flight plan parsing failed, navigation log unavailable